Terminal Aerodrome Forecast
Issued by NWS

Home | Current Version | Previous Version | Text Only | Print | Product List | Glossary On
Versions: 1 2 3 4 5 6 7 8 9 10 11 12 13
000
FTUS45 KTFX 240500
TAFBZN
TAF
KBZN 240533Z 2406/2506 26008KT P6SM VCSH SCT030 OVC050
     FM241400 26010KT P6SM OVC070
     FM250000 16005KT P6SM SCT100=

USA.gov is the U.S. government's official web portal to all federal, state and local government web resources and services.